Terminal Aerodrome Forecast
Issued by NWS North Platte, NE

Home | Current Version | Previous Version | Text Only | Print | Product List | Glossary On
Versions: 1 2 3 4 5 6 7 8 9 10 11 12 13 14 15 16
000
FTUS43 KLBF 171700
TAFVTN
TAF
KVTN 171736Z 1718/1818 10008KT P6SM SKC
     FM180600 12005KT P6SM BKN120 BKN250
     FM181200 16010KT 5SM BR BKN015=

USA.gov is the U.S. government's official web portal to all federal, state and local government web resources and services.